sensor_id;sensor_type;location;lat;lon;timestamp;P1;durP1;ratioP1;P2;durP2;ratioP2
36669;SDS011;22662;47.412;9.742;2022-07-01T00:01:58;1.40;;;1.30;;
36669;SDS011;22662;47.412;9.742;2022-07-01T00:04:24;1.40;;;1.30;;
36669;SDS011;22662;47.412;9.742;2022-07-01T00:06:56;1.67;;;1.58;;
36669;SDS011;22662;47.412;9.742;2022-07-01T00:09:22;1.75;;;1.60;;
36669;SDS011;22662;47.412;9.742;2022-07-01T00:11:48;1.95;;;1.70;;
36669;SDS011;22662;47.412;9.742;2022-07-01T00:14:15;2.13;;;1.60;;
36669;SDS011;22662;47.412;9.742;2022-07-01T00:16:41;2.10;;;1.90;;
36669;SDS011;22662;47.412;9.742;2022-07-01T00:19:07;2.85;;;1.70;;
36669;SDS011;22662;47.412;9.742;2022-07-01T00:21:33;1.50;;;1.40;;
36669;SDS011;22662;47.412;9.742;2022-07-01T00:23:59;3.30;;;2.00;;
36669;SDS011;22662;47.412;9.742;2022-07-01T00:26:25;2.53;;;1.80;;
36669;SDS011;22662;47.412;9.742;2022-07-01T00:28:50;1.70;;;1.60;;
36669;SDS011;22662;47.412;9.742;2022-07-01T00:31:16;1.75;;;1.52;;
36669;SDS011;22662;47.412;9.742;2022-07-01T00:33:42;1.80;;;1.70;;
36669;SDS011;22662;47.412;9.742;2022-07-01T00:36:08;1.83;;;1.60;;
36669;SDS011;22662;47.412;9.742;2022-07-01T00:38:34;1.38;;;1.25;;
36669;SDS011;22662;47.412;9.742;2022-07-01T00:41:00;1.45;;;1.20;;
36669;SDS011;22662;47.412;9.742;2022-07-01T00:43:26;1.67;;;1.58;;
36669;SDS011;22662;47.412;9.742;2022-07-01T00:45:52;2.65;;;1.60;;
36669;SDS011;22662;47.412;9.742;2022-07-01T00:48:19;1.48;;;1.38;;
36669;SDS011;22662;47.412;9.742;2022-07-01T00:50:46;1.65;;;1.55;;
36669;SDS011;22662;47.412;9.742;2022-07-01T00:53:14;1.85;;;1.50;;
36669;SDS011;22662;47.412;9.742;2022-07-01T00:55:41;1.52;;;1.42;;
36669;SDS011;22662;47.412;9.742;2022-07-01T00:58:07;2.53;;;1.80;;
36669;SDS011;22662;47.412;9.742;2022-07-01T01:00:34;1.77;;;1.67;;
36669;SDS011;22662;47.412;9.742;2022-07-01T01:03:04;1.48;;;1.38;;
36669;SDS011;22662;47.412;9.742;2022-07-01T01:05:33;1.98;;;1.30;;
36669;SDS011;22662;47.412;9.742;2022-07-01T01:07:59;1.77;;;1.40;;
36669;SDS011;22662;47.412;9.742;2022-07-01T01:10:25;1.70;;;1.27;;
36669;SDS011;22662;47.412;9.742;2022-07-01T01:12:53;2.67;;;1.40;;
36669;SDS011;22662;47.412;9.742;2022-07-01T01:15:21;2.15;;;1.60;;
36669;SDS011;22662;47.412;9.742;2022-07-01T01:17:47;1.63;;;1.27;;
36669;SDS011;22662;47.412;9.742;2022-07-01T01:20:16;1.30;;;1.20;;
36669;SDS011;22662;47.412;9.742;2022-07-01T01:22:43;1.70;;;1.38;;
36669;SDS011;22662;47.412;9.742;2022-07-01T01:25:10;2.03;;;1.50;;
36669;SDS011;22662;47.412;9.742;2022-07-01T01:27:36;2.05;;;1.52;;
36669;SDS011;22662;47.412;9.742;2022-07-01T01:30:05;1.83;;;1.40;;
36669;SDS011;22662;47.412;9.742;2022-07-01T01:32:33;2.40;;;1.50;;
36669;SDS011;22662;47.412;9.742;2022-07-01T01:34:59;1.70;;;1.25;;
36669;SDS011;22662;47.412;9.742;2022-07-01T01:37:25;1.45;;;1.35;;
36669;SDS011;22662;47.412;9.742;2022-07-01T01:39:52;1.30;;;1.20;;
36669;SDS011;22662;47.412;9.742;2022-07-01T01:42:19;1.50;;;1.40;;
36669;SDS011;22662;47.412;9.742;2022-07-01T01:44:45;1.92;;;1.50;;
36669;SDS011;22662;47.412;9.742;2022-07-01T01:47:11;1.40;;;1.30;;
36669;SDS011;22662;47.412;9.742;2022-07-01T01:49:36;2.03;;;1.42;;
36669;SDS011;22662;47.412;9.742;2022-07-01T01:52:02;1.45;;;1.35;;
36669;SDS011;22662;47.412;9.742;2022-07-01T01:54:28;1.70;;;1.60;;
36669;SDS011;22662;47.412;9.742;2022-07-01T01:56:54;1.83;;;1.73;;
36669;SDS011;22662;47.412;9.742;2022-07-01T01:59:20;2.17;;;1.92;;
36669;SDS011;22662;47.412;9.742;2022-07-01T02:01:45;2.10;;;1.90;;
36669;SDS011;22662;47.412;9.742;2022-07-01T02:04:11;2.45;;;1.60;;
36669;SDS011;22662;47.412;9.742;2022-07-01T02:06:37;2.28;;;1.67;;
36669;SDS011;22662;47.412;9.742;2022-07-01T02:09:06;1.75;;;1.60;;
36669;SDS011;22662;47.412;9.742;2022-07-01T02:11:32;2.95;;;1.83;;
36669;SDS011;22662;47.412;9.742;2022-07-01T02:13:58;2.63;;;1.55;;
36669;SDS011;22662;47.412;9.742;2022-07-01T02:16:24;1.40;;;1.30;;
36669;SDS011;22662;47.412;9.742;2022-07-01T02:18:50;1.92;;;1.70;;
36669;SDS011;22662;47.412;9.742;2022-07-01T02:21:16;1.45;;;1.35;;
36669;SDS011;22662;47.412;9.742;2022-07-01T02:23:41;1.38;;;1.27;;
36669;SDS011;22662;47.412;9.742;2022-07-01T02:26:07;1.45;;;1.35;;
36669;SDS011;22662;47.412;9.742;2022-07-01T02:28:33;1.25;;;1.15;;
36669;SDS011;22662;47.412;9.742;2022-07-01T02:30:59;1.40;;;1.30;;
36669;SDS011;22662;47.412;9.742;2022-07-01T02:33:25;3.15;;;2.25;;
36669;SDS011;22662;47.412;9.742;2022-07-01T02:35:51;2.63;;;2.42;;
36669;SDS011;22662;47.412;9.742;2022-07-01T02:38:16;2.80;;;2.60;;
36669;SDS011;22662;47.412;9.742;2022-07-01T02:40:42;3.35;;;2.80;;
36669;SDS011;22662;47.412;9.742;2022-07-01T02:43:08;2.53;;;2.25;;
36669;SDS011;22662;47.412;9.742;2022-07-01T02:45:34;2.35;;;2.10;;
36669;SDS011;22662;47.412;9.742;2022-07-01T02:48:00;2.33;;;2.03;;
36669;SDS011;22662;47.412;9.742;2022-07-01T02:50:27;2.28;;;2.08;;
36669;SDS011;22662;47.412;9.742;2022-07-01T02:52:53;2.20;;;2.00;;
36669;SDS011;22662;47.412;9.742;2022-07-01T02:55:19;1.88;;;1.77;;
36669;SDS011;22662;47.412;9.742;2022-07-01T02:57:45;1.83;;;1.73;;
36669;SDS011;22662;47.412;9.742;2022-07-01T03:00:15;1.90;;;1.80;;
36669;SDS011;22662;47.412;9.742;2022-07-01T03:02:41;2.40;;;1.70;;
36669;SDS011;22662;47.412;9.742;2022-07-01T03:05:07;1.80;;;1.70;;
36669;SDS011;22662;47.412;9.742;2022-07-01T03:07:34;2.50;;;1.60;;
36669;SDS011;22662;47.412;9.742;2022-07-01T03:10:00;1.90;;;1.48;;
36669;SDS011;22662;47.412;9.742;2022-07-01T03:12:26;1.80;;;1.65;;
36669;SDS011;22662;47.412;9.742;2022-07-01T03:15:00;1.70;;;1.60;;
36669;SDS011;22662;47.412;9.742;2022-07-01T03:17:27;1.85;;;1.70;;
36669;SDS011;22662;47.412;9.742;2022-07-01T03:19:54;2.60;;;1.83;;
36669;SDS011;22662;47.412;9.742;2022-07-01T03:22:20;2.15;;;1.95;;
36669;SDS011;22662;47.412;9.742;2022-07-01T03:24:48;3.65;;;1.77;;
36669;SDS011;22662;47.412;9.742;2022-07-01T03:27:15;2.53;;;1.80;;
36669;SDS011;22662;47.412;9.742;2022-07-01T03:29:41;1.90;;;1.80;;
36669;SDS011;22662;47.412;9.742;2022-07-01T03:32:07;2.00;;;1.80;;
36669;SDS011;22662;47.412;9.742;2022-07-01T03:34:37;2.42;;;1.75;;
36669;SDS011;22662;47.412;9.742;2022-07-01T03:37:04;4.25;;;1.85;;
36669;SDS011;22662;47.412;9.742;2022-07-01T03:39:30;2.33;;;1.60;;
36669;SDS011;22662;47.412;9.742;2022-07-01T03:41:56;3.42;;;1.73;;
36669;SDS011;22662;47.412;9.742;2022-07-01T03:44:22;2.33;;;1.60;;
36669;SDS011;22662;47.412;9.742;2022-07-01T03:46:48;1.83;;;1.42;;
36669;SDS011;22662;47.412;9.742;2022-07-01T03:49:14;3.40;;;1.83;;
36669;SDS011;22662;47.412;9.742;2022-07-01T03:51:39;2.70;;;2.38;;
36669;SDS011;22662;47.412;9.742;2022-07-01T03:54:05;1.70;;;1.60;;
36669;SDS011;22662;47.412;9.742;2022-07-01T03:56:49;3.55;;;1.90;;
36669;SDS011;22662;47.412;9.742;2022-07-01T03:59:15;1.92;;;1.80;;
36669;SDS011;22662;47.412;9.742;2022-07-01T04:01:41;2.63;;;1.80;;
36669;SDS011;22662;47.412;9.742;2022-07-01T04:04:07;2.17;;;1.92;;
36669;SDS011;22662;47.412;9.742;2022-07-01T04:06:32;1.95;;;1.75;;
36669;SDS011;22662;47.412;9.742;2022-07-01T04:08:58;2.88;;;2.03;;
36669;SDS011;22662;47.412;9.742;2022-07-01T04:11:25;2.35;;;1.80;;
36669;SDS011;22662;47.412;9.742;2022-07-01T04:13:51;2.72;;;2.00;;
36669;SDS011;22662;47.412;9.742;2022-07-01T04:16:17;2.00;;;1.70;;
36669;SDS011;22662;47.412;9.742;2022-07-01T04:18:44;2.90;;;2.00;;
36669;SDS011;22662;47.412;9.742;2022-07-01T04:21:10;2.50;;;2.20;;
36669;SDS011;22662;47.412;9.742;2022-07-01T04:23:55;2.65;;;1.92;;
36669;SDS011;22662;47.412;9.742;2022-07-01T04:26:22;4.85;;;1.88;;
36669;SDS011;22662;47.412;9.742;2022-07-01T04:28:49;2.63;;;1.90;;
36669;SDS011;22662;47.412;9.742;2022-07-01T04:31:16;2.08;;;1.88;;
36669;SDS011;22662;47.412;9.742;2022-07-01T04:33:42;2.55;;;2.13;;
36669;SDS011;22662;47.412;9.742;2022-07-01T04:36:08;2.30;;;2.08;;
36669;SDS011;22662;47.412;9.742;2022-07-01T04:38:33;2.80;;;2.50;;
36669;SDS011;22662;47.412;9.742;2022-07-01T04:40:59;4.22;;;2.50;;
36669;SDS011;22662;47.412;9.742;2022-07-01T04:43:43;4.85;;;2.60;;
36669;SDS011;22662;47.412;9.742;2022-07-01T04:46:09;3.58;;;2.85;;
36669;SDS011;22662;47.412;9.742;2022-07-01T04:48:35;3.80;;;2.95;;
36669;SDS011;22662;47.412;9.742;2022-07-01T04:51:00;4.18;;;3.35;;
36669;SDS011;22662;47.412;9.742;2022-07-01T04:53:26;3.00;;;2.70;;
36669;SDS011;22662;47.412;9.742;2022-07-01T04:55:52;3.08;;;2.20;;
36669;SDS011;22662;47.412;9.742;2022-07-01T04:58:17;1.42;;;1.30;;
36669;SDS011;22662;47.412;9.742;2022-07-01T05:00:43;2.50;;;1.48;;
36669;SDS011;22662;47.412;9.742;2022-07-01T05:03:09;1.67;;;1.20;;
36669;SDS011;22662;47.412;9.742;2022-07-01T05:05:34;1.20;;;0.90;;
36669;SDS011;22662;47.412;9.742;2022-07-01T05:08:00;1.73;;;0.82;;
36669;SDS011;22662;47.412;9.742;2022-07-01T05:10:26;1.77;;;0.80;;
36669;SDS011;22662;47.412;9.742;2022-07-01T05:12:53;2.35;;;0.85;;
36669;SDS011;22662;47.412;9.742;2022-07-01T05:15:19;1.58;;;0.90;;
36669;SDS011;22662;47.412;9.742;2022-07-01T05:17:45;1.48;;;0.60;;
36669;SDS011;22662;47.412;9.742;2022-07-01T05:20:29;0.82;;;0.60;;
36669;SDS011;22662;47.412;9.742;2022-07-01T05:23:13;1.80;;;0.60;;
36669;SDS011;22662;47.412;9.742;2022-07-01T05:25:39;0.93;;;0.32;;
36669;SDS011;22662;47.412;9.742;2022-07-01T05:28:04;2.17;;;0.43;;
36669;SDS011;22662;47.412;9.742;2022-07-01T05:30:30;1.30;;;0.60;;
36669;SDS011;22662;47.412;9.742;2022-07-01T05:32:56;0.70;;;0.40;;
36669;SDS011;22662;47.412;9.742;2022-07-01T05:35:22;0.50;;;0.30;;
36669;SDS011;22662;47.412;9.742;2022-07-01T05:37:48;0.70;;;0.40;;
36669;SDS011;22662;47.412;9.742;2022-07-01T05:40:13;0.82;;;0.50;;
36669;SDS011;22662;47.412;9.742;2022-07-01T05:42:39;0.93;;;0.40;;
36669;SDS011;22662;47.412;9.742;2022-07-01T05:45:06;0.80;;;0.40;;
36669;SDS011;22662;47.412;9.742;2022-07-01T05:47:32;0.65;;;0.50;;
36669;SDS011;22662;47.412;9.742;2022-07-01T05:49:58;1.05;;;0.50;;
36669;SDS011;22662;47.412;9.742;2022-07-01T05:52:24;0.65;;;0.40;;
36669;SDS011;22662;47.412;9.742;2022-07-01T05:54:49;0.28;;;0.28;;
36669;SDS011;22662;47.412;9.742;2022-07-01T05:57:15;0.75;;;0.45;;
36669;SDS011;22662;47.412;9.742;2022-07-01T05:59:41;0.57;;;0.40;;
36669;SDS011;22662;47.412;9.742;2022-07-01T06:02:07;0.95;;;0.50;;
36669;SDS011;22662;47.412;9.742;2022-07-01T06:04:33;0.98;;;0.60;;
36669;SDS011;22662;47.412;9.742;2022-07-01T06:06:59;0.60;;;0.50;;
36669;SDS011;22662;47.412;9.742;2022-07-01T06:09:25;1.13;;;0.43;;
36669;SDS011;22662;47.412;9.742;2022-07-01T06:11:51;0.90;;;0.57;;
36669;SDS011;22662;47.412;9.742;2022-07-01T06:14:17;2.10;;;0.65;;
36669;SDS011;22662;47.412;9.742;2022-07-01T06:16:43;0.88;;;0.40;;
36669;SDS011;22662;47.412;9.742;2022-07-01T06:19:09;1.90;;;0.50;;
36669;SDS011;22662;47.412;9.742;2022-07-01T06:21:34;1.77;;;0.70;;
36669;SDS011;22662;47.412;9.742;2022-07-01T06:24:00;0.55;;;0.50;;
36669;SDS011;22662;47.412;9.742;2022-07-01T06:26:26;1.77;;;0.70;;
36669;SDS011;22662;47.412;9.742;2022-07-01T06:28:52;0.75;;;0.50;;
36669;SDS011;22662;47.412;9.742;2022-07-01T06:31:18;0.68;;;0.50;;
36669;SDS011;22662;47.412;9.742;2022-07-01T06:33:43;1.60;;;0.60;;
36669;SDS011;22662;47.412;9.742;2022-07-01T06:36:09;0.95;;;0.60;;
36669;SDS011;22662;47.412;9.742;2022-07-01T06:38:36;0.77;;;0.50;;
36669;SDS011;22662;47.412;9.742;2022-07-01T06:41:03;0.40;;;0.40;;
36669;SDS011;22662;47.412;9.742;2022-07-01T06:43:48;1.05;;;0.70;;
36669;SDS011;22662;47.412;9.742;2022-07-01T06:46:15;0.45;;;0.43;;
36669;SDS011;22662;47.412;9.742;2022-07-01T06:48:41;0.70;;;0.60;;
36669;SDS011;22662;47.412;9.742;2022-07-01T06:51:06;0.95;;;0.50;;
36669;SDS011;22662;47.412;9.742;2022-07-01T06:53:32;0.98;;;0.73;;
36669;SDS011;22662;47.412;9.742;2022-07-01T06:55:58;0.50;;;0.50;;
36669;SDS011;22662;47.412;9.742;2022-07-01T06:58:24;0.75;;;0.50;;
36669;SDS011;22662;47.412;9.742;2022-07-01T07:00:50;0.47;;;0.30;;
36669;SDS011;22662;47.412;9.742;2022-07-01T07:03:16;0.30;;;0.30;;
36669;SDS011;22662;47.412;9.742;2022-07-01T07:05:41;0.30;;;0.30;;
36669;SDS011;22662;47.412;9.742;2022-07-01T07:08:07;0.93;;;0.63;;
36669;SDS011;22662;47.412;9.742;2022-07-01T07:10:34;0.63;;;0.40;;
36669;SDS011;22662;47.412;9.742;2022-07-01T07:12:59;1.38;;;0.43;;
36669;SDS011;22662;47.412;9.742;2022-07-01T07:15:25;0.47;;;0.47;;
36669;SDS011;22662;47.412;9.742;2022-07-01T07:17:51;0.65;;;0.40;;
36669;SDS011;22662;47.412;9.742;2022-07-01T07:20:28;1.27;;;0.50;;
36669;SDS011;22662;47.412;9.742;2022-07-01T07:23:00;0.60;;;0.57;;
36669;SDS011;22662;47.412;9.742;2022-07-01T07:25:26;0.57;;;0.50;;
36669;SDS011;22662;47.412;9.742;2022-07-01T07:27:52;0.80;;;0.50;;
36669;SDS011;22662;47.412;9.742;2022-07-01T07:30:18;0.35;;;0.30;;
36669;SDS011;22662;47.412;9.742;2022-07-01T07:32:45;0.50;;;0.40;;
36669;SDS011;22662;47.412;9.742;2022-07-01T07:35:11;0.40;;;0.40;;
36669;SDS011;22662;47.412;9.742;2022-07-01T07:37:37;0.22;;;0.22;;
36669;SDS011;22662;47.412;9.742;2022-07-01T07:40:04;0.32;;;0.28;;
36669;SDS011;22662;47.412;9.742;2022-07-01T07:42:33;0.38;;;0.30;;
36669;SDS011;22662;47.412;9.742;2022-07-01T07:44:59;1.10;;;0.80;;
36669;SDS011;22662;47.412;9.742;2022-07-01T07:47:25;1.30;;;0.63;;
36669;SDS011;22662;47.412;9.742;2022-07-01T07:49:51;0.82;;;0.40;;
36669;SDS011;22662;47.412;9.742;2022-07-01T07:52:16;0.93;;;0.30;;
36669;SDS011;22662;47.412;9.742;2022-07-01T07:54:42;0.60;;;0.60;;
36669;SDS011;22662;47.412;9.742;2022-07-01T07:57:08;0.70;;;0.68;;
36669;SDS011;22662;47.412;9.742;2022-07-01T07:59:34;0.70;;;0.40;;
36669;SDS011;22662;47.412;9.742;2022-07-01T08:02:01;0.52;;;0.40;;
36669;SDS011;22662;47.412;9.742;2022-07-01T08:04:27;0.95;;;0.40;;
36669;SDS011;22662;47.412;9.742;2022-07-01T08:06:53;0.68;;;0.57;;
36669;SDS011;22662;47.412;9.742;2022-07-01T08:09:19;1.40;;;0.50;;
36669;SDS011;22662;47.412;9.742;2022-07-01T08:11:45;0.95;;;0.52;;
36669;SDS011;22662;47.412;9.742;2022-07-01T08:14:10;0.93;;;0.60;;
36669;SDS011;22662;47.412;9.742;2022-07-01T08:16:36;0.63;;;0.57;;
36669;SDS011;22662;47.412;9.742;2022-07-01T08:19:02;0.98;;;0.60;;
36669;SDS011;22662;47.412;9.742;2022-07-01T08:21:29;0.50;;;0.30;;
36669;SDS011;22662;47.412;9.742;2022-07-01T08:23:55;0.40;;;0.30;;
36669;SDS011;22662;47.412;9.742;2022-07-01T08:26:21;1.15;;;0.30;;
36669;SDS011;22662;47.412;9.742;2022-07-01T08:28:47;0.25;;;0.20;;
36669;SDS011;22662;47.412;9.742;2022-07-01T08:31:13;0.63;;;0.30;;
36669;SDS011;22662;47.412;9.742;2022-07-01T08:33:39;0.60;;;0.50;;
36669;SDS011;22662;47.412;9.742;2022-07-01T08:36:06;0.65;;;0.40;;
36669;SDS011;22662;47.412;9.742;2022-07-01T08:38:33;1.02;;;0.70;;
36669;SDS011;22662;47.412;9.742;2022-07-01T08:41:00;0.47;;;0.30;;
36669;SDS011;22662;47.412;9.742;2022-07-01T08:43:27;1.40;;;0.95;;
36669;SDS011;22662;47.412;9.742;2022-07-01T08:45:53;1.02;;;0.60;;
36669;SDS011;22662;47.412;9.742;2022-07-01T08:48:19;1.58;;;0.30;;
36669;SDS011;22662;47.412;9.742;2022-07-01T08:50:46;1.73;;;1.63;;
36669;SDS011;22662;47.412;9.742;2022-07-01T08:53:12;0.65;;;0.50;;
36669;SDS011;22662;47.412;9.742;2022-07-01T08:55:38;0.75;;;0.40;;
36669;SDS011;22662;47.412;9.742;2022-07-01T08:58:24;0.40;;;0.40;;
36669;SDS011;22662;47.412;9.742;2022-07-01T09:00:52;0.60;;;0.50;;
36669;SDS011;22662;47.412;9.742;2022-07-01T09:03:21;0.50;;;0.50;;
36669;SDS011;22662;47.412;9.742;2022-07-01T09:05:51;0.98;;;0.57;;
36669;SDS011;22662;47.412;9.742;2022-07-01T09:08:18;0.88;;;0.50;;
36669;SDS011;22662;47.412;9.742;2022-07-01T09:10:44;0.75;;;0.70;;
36669;SDS011;22662;47.412;9.742;2022-07-01T09:13:11;0.63;;;0.52;;
36669;SDS011;22662;47.412;9.742;2022-07-01T09:15:39;0.40;;;0.40;;
36669;SDS011;22662;47.412;9.742;2022-07-01T09:18:12;0.40;;;0.40;;
36669;SDS011;22662;47.412;9.742;2022-07-01T09:20:39;0.30;;;0.30;;
36669;SDS011;22662;47.412;9.742;2022-07-01T09:23:08;0.95;;;0.50;;
36669;SDS011;22662;47.412;9.742;2022-07-01T09:25:36;0.50;;;0.30;;
36669;SDS011;22662;47.412;9.742;2022-07-01T09:28:03;0.70;;;0.43;;
36669;SDS011;22662;47.412;9.742;2022-07-01T09:30:34;0.90;;;0.50;;
36669;SDS011;22662;47.412;9.742;2022-07-01T09:35:39;1.92;;;0.70;;
36669;SDS011;22662;47.412;9.742;2022-07-01T09:38:06;0.98;;;0.93;;
36669;SDS011;22662;47.412;9.742;2022-07-01T09:40:45;0.82;;;0.60;;
36669;SDS011;22662;47.412;9.742;2022-07-01T09:45:56;0.35;;;0.25;;
36669;SDS011;22662;47.412;9.742;2022-07-01T09:48:23;1.05;;;0.60;;
36669;SDS011;22662;47.412;9.742;2022-07-01T09:51:07;0.77;;;0.60;;
36669;SDS011;22662;47.412;9.742;2022-07-01T09:53:35;0.82;;;0.63;;
36669;SDS011;22662;47.412;9.742;2022-07-01T09:56:01;1.45;;;0.50;;
36669;SDS011;22662;47.412;9.742;2022-07-01T09:58:27;1.00;;;0.60;;
36669;SDS011;22662;47.412;9.742;2022-07-01T10:00:53;1.05;;;0.80;;
36669;SDS011;22662;47.412;9.742;2022-07-01T10:03:20;1.60;;;0.60;;
36669;SDS011;22662;47.412;9.742;2022-07-01T10:14:08;1.05;;;0.70;;
36669;SDS011;22662;47.412;9.742;2022-07-01T10:16:36;0.80;;;0.77;;
36669;SDS011;22662;47.412;9.742;2022-07-01T10:21:49;1.00;;;0.45;;
36669;SDS011;22662;47.412;9.742;2022-07-01T10:24:22;1.58;;;0.63;;
36669;SDS011;22662;47.412;9.742;2022-07-01T10:26:49;0.40;;;0.40;;
36669;SDS011;22662;47.412;9.742;2022-07-01T10:34:36;1.35;;;0.90;;
36669;SDS011;22662;47.412;9.742;2022-07-01T10:37:07;0.70;;;0.40;;
36669;SDS011;22662;47.412;9.742;2022-07-01T10:42:18;1.27;;;1.05;;
36669;SDS011;22662;47.412;9.742;2022-07-01T10:47:33;0.65;;;0.50;;
36669;SDS011;22662;47.412;9.742;2022-07-01T10:50:09;0.73;;;0.70;;
36669;SDS011;22662;47.412;9.742;2022-07-01T10:52:36;0.75;;;0.60;;
36669;SDS011;22662;47.412;9.742;2022-07-01T10:55:04;0.55;;;0.40;;
36669;SDS011;22662;47.412;9.742;2022-07-01T10:57:34;0.95;;;0.50;;
36669;SDS011;22662;47.412;9.742;2022-07-01T11:02:33;0.80;;;0.60;;
36669;SDS011;22662;47.412;9.742;2022-07-01T11:05:01;0.90;;;0.60;;
36669;SDS011;22662;47.412;9.742;2022-07-01T11:07:32;0.52;;;0.47;;
36669;SDS011;22662;47.412;9.742;2022-07-01T11:10:00;1.63;;;0.50;;
36669;SDS011;22662;47.412;9.742;2022-07-01T11:12:28;0.85;;;0.52;;
36669;SDS011;22662;47.412;9.742;2022-07-01T11:14:55;0.50;;;0.50;;
36669;SDS011;22662;47.412;9.742;2022-07-01T11:17:24;1.40;;;0.80;;
36669;SDS011;22662;47.412;9.742;2022-07-01T11:19:51;1.63;;;1.00;;
36669;SDS011;22662;47.412;9.742;2022-07-01T11:22:19;0.80;;;0.80;;
36669;SDS011;22662;47.412;9.742;2022-07-01T11:24:46;1.40;;;0.80;;
36669;SDS011;22662;47.412;9.742;2022-07-01T11:27:16;2.00;;;1.30;;
36669;SDS011;22662;47.412;9.742;2022-07-01T11:29:42;2.08;;;1.40;;
36669;SDS011;22662;47.412;9.742;2022-07-01T11:32:08;2.00;;;1.30;;
36669;SDS011;22662;47.412;9.742;2022-07-01T11:34:35;2.70;;;1.23;;
36669;SDS011;22662;47.412;9.742;2022-07-01T11:37:08;2.55;;;1.20;;
36669;SDS011;22662;47.412;9.742;2022-07-01T11:40:04;2.80;;;1.60;;
36669;SDS011;22662;47.412;9.742;2022-07-01T11:42:31;1.52;;;1.17;;
36669;SDS011;22662;47.412;9.742;2022-07-01T11:44:58;2.13;;;0.90;;
36669;SDS011;22662;47.412;9.742;2022-07-01T11:47:24;2.25;;;1.20;;
36669;SDS011;22662;47.412;9.742;2022-07-01T11:49:51;1.63;;;1.13;;
36669;SDS011;22662;47.412;9.742;2022-07-01T11:52:17;1.27;;;1.17;;
36669;SDS011;22662;47.412;9.742;2022-07-01T11:54:45;2.13;;;1.63;;
36669;SDS011;22662;47.412;9.742;2022-07-01T11:57:14;1.73;;;1.00;;
36669;SDS011;22662;47.412;9.742;2022-07-01T11:59:45;1.98;;;1.27;;
36669;SDS011;22662;47.412;9.742;2022-07-01T12:02:12;1.15;;;0.90;;
36669;SDS011;22662;47.412;9.742;2022-07-01T12:04:40;1.73;;;1.30;;
36669;SDS011;22662;47.412;9.742;2022-07-01T12:07:06;1.17;;;0.90;;
36669;SDS011;22662;47.412;9.742;2022-07-01T12:09:33;0.90;;;0.77;;
36669;SDS011;22662;47.412;9.742;2022-07-01T12:12:00;1.33;;;0.75;;
36669;SDS011;22662;47.412;9.742;2022-07-01T12:14:27;1.00;;;0.85;;
36669;SDS011;22662;47.412;9.742;2022-07-01T12:17:05;1.52;;;0.90;;
36669;SDS011;22662;47.412;9.742;2022-07-01T12:19:40;1.10;;;1.00;;
36669;SDS011;22662;47.412;9.742;2022-07-01T12:22:16;0.63;;;0.63;;
36669;SDS011;22662;47.412;9.742;2022-07-01T12:24:45;1.00;;;0.95;;
36669;SDS011;22662;47.412;9.742;2022-07-01T12:27:12;1.08;;;0.80;;
36669;SDS011;22662;47.412;9.742;2022-07-01T12:32:58;0.80;;;0.80;;
36669;SDS011;22662;47.412;9.742;2022-07-01T12:35:05;1.42;;;0.80;;
36669;SDS011;22662;47.412;9.742;2022-07-01T12:37:55;0.60;;;0.57;;
36669;SDS011;22662;47.412;9.742;2022-07-01T12:40:26;0.60;;;0.60;;
36669;SDS011;22662;47.412;9.742;2022-07-01T12:42:55;1.00;;;0.70;;
36669;SDS011;22662;47.412;9.742;2022-07-01T12:45:25;1.25;;;0.73;;
36669;SDS011;22662;47.412;9.742;2022-07-01T12:47:52;1.13;;;0.93;;
36669;SDS011;22662;47.412;9.742;2022-07-01T12:50:21;2.88;;;0.90;;
36669;SDS011;22662;47.412;9.742;2022-07-01T12:53:04;1.00;;;0.80;;
36669;SDS011;22662;47.412;9.742;2022-07-01T12:55:39;0.80;;;0.80;;
36669;SDS011;22662;47.412;9.742;2022-07-01T13:00:38;0.60;;;0.60;;
36669;SDS011;22662;47.412;9.742;2022-07-01T13:03:06;1.23;;;0.90;;
36669;SDS011;22662;47.412;9.742;2022-07-01T13:05:33;1.08;;;0.75;;
36669;SDS011;22662;47.412;9.742;2022-07-01T13:08:00;1.10;;;1.00;;
36669;SDS011;22662;47.412;9.742;2022-07-01T13:10:26;1.05;;;0.95;;
36669;SDS011;22662;47.412;9.742;2022-07-01T13:12:52;0.98;;;0.70;;
36669;SDS011;22662;47.412;9.742;2022-07-01T13:15:18;2.13;;;0.90;;
36669;SDS011;22662;47.412;9.742;2022-07-01T13:17:45;1.48;;;0.70;;
36669;SDS011;22662;47.412;9.742;2022-07-01T13:20:12;1.35;;;0.85;;
36669;SDS011;22662;47.412;9.742;2022-07-01T13:22:38;1.20;;;0.98;;
36669;SDS011;22662;47.412;9.742;2022-07-01T13:25:04;0.82;;;0.73;;
36669;SDS011;22662;47.412;9.742;2022-07-01T13:27:31;0.93;;;0.60;;
36669;SDS011;22662;47.412;9.742;2022-07-01T13:29:57;0.98;;;0.93;;
36669;SDS011;22662;47.412;9.742;2022-07-01T13:32:23;1.00;;;0.70;;
36669;SDS011;22662;47.412;9.742;2022-07-01T13:34:49;1.45;;;0.80;;
36669;SDS011;22662;47.412;9.742;2022-07-01T13:37:15;0.80;;;0.57;;
36669;SDS011;22662;47.412;9.742;2022-07-01T13:39:41;1.05;;;0.80;;
36669;SDS011;22662;47.412;9.742;2022-07-01T13:42:07;1.05;;;0.70;;
36669;SDS011;22662;47.412;9.742;2022-07-01T13:44:34;1.35;;;0.90;;
36669;SDS011;22662;47.412;9.742;2022-07-01T13:47:00;1.23;;;0.88;;
36669;SDS011;22662;47.412;9.742;2022-07-01T13:49:27;1.10;;;0.82;;
36669;SDS011;22662;47.412;9.742;2022-07-01T13:51:53;1.30;;;0.82;;
36669;SDS011;22662;47.412;9.742;2022-07-01T13:54:19;0.70;;;0.70;;
36669;SDS011;22662;47.412;9.742;2022-07-01T13:56:45;0.57;;;0.57;;
36669;SDS011;22662;47.412;9.742;2022-07-01T13:59:11;0.75;;;0.70;;
36669;SDS011;22662;47.412;9.742;2022-07-01T14:01:37;1.10;;;0.70;;
36669;SDS011;22662;47.412;9.742;2022-07-01T14:04:03;0.95;;;0.85;;
36669;SDS011;22662;47.412;9.742;2022-07-01T14:06:29;1.58;;;1.00;;
36669;SDS011;22662;47.412;9.742;2022-07-01T14:08:55;0.95;;;0.70;;
36669;SDS011;22662;47.412;9.742;2022-07-01T14:11:21;0.80;;;0.75;;
36669;SDS011;22662;47.412;9.742;2022-07-01T14:13:47;1.70;;;0.90;;
36669;SDS011;22662;47.412;9.742;2022-07-01T14:16:13;2.45;;;0.63;;
36669;SDS011;22662;47.412;9.742;2022-07-01T14:18:39;0.88;;;0.70;;
36669;SDS011;22662;47.412;9.742;2022-07-01T14:21:05;0.80;;;0.80;;
36669;SDS011;22662;47.412;9.742;2022-07-01T14:23:31;1.10;;;0.70;;
36669;SDS011;22662;47.412;9.742;2022-07-01T14:25:57;1.35;;;0.60;;
36669;SDS011;22662;47.412;9.742;2022-07-01T14:28:23;0.93;;;0.30;;
36669;SDS011;22662;47.412;9.742;2022-07-01T14:30:49;0.50;;;0.50;;
36669;SDS011;22662;47.412;9.742;2022-07-01T14:33:15;1.33;;;0.60;;
36669;SDS011;22662;47.412;9.742;2022-07-01T14:35:42;0.52;;;0.50;;
36669;SDS011;22662;47.412;9.742;2022-07-01T14:38:08;0.90;;;0.70;;
36669;SDS011;22662;47.412;9.742;2022-07-01T14:40:35;0.45;;;0.45;;
36669;SDS011;22662;47.412;9.742;2022-07-01T14:43:01;0.55;;;0.50;;
36669;SDS011;22662;47.412;9.742;2022-07-01T14:45:28;1.65;;;0.73;;
36669;SDS011;22662;47.412;9.742;2022-07-01T14:47:54;1.13;;;0.70;;
36669;SDS011;22662;47.412;9.742;2022-07-01T14:50:20;1.35;;;0.90;;
36669;SDS011;22662;47.412;9.742;2022-07-01T14:52:46;1.83;;;1.00;;
36669;SDS011;22662;47.412;9.742;2022-07-01T14:55:13;2.72;;;1.10;;
36669;SDS011;22662;47.412;9.742;2022-07-01T14:57:39;0.85;;;0.70;;
36669;SDS011;22662;47.412;9.742;2022-07-01T15:00:05;0.85;;;0.70;;
36669;SDS011;22662;47.412;9.742;2022-07-01T15:02:31;2.83;;;1.02;;
36669;SDS011;22662;47.412;9.742;2022-07-01T15:04:57;1.60;;;0.70;;
36669;SDS011;22662;47.412;9.742;2022-07-01T15:07:23;0.60;;;0.60;;
36669;SDS011;22662;47.412;9.742;2022-07-01T15:09:49;0.70;;;0.55;;
36669;SDS011;22662;47.412;9.742;2022-07-01T15:12:16;1.67;;;0.70;;
36669;SDS011;22662;47.412;9.742;2022-07-01T15:14:43;0.98;;;0.77;;
36669;SDS011;22662;47.412;9.742;2022-07-01T15:17:09;1.73;;;0.80;;
36669;SDS011;22662;47.412;9.742;2022-07-01T15:19:35;1.85;;;1.08;;
36669;SDS011;22662;47.412;9.742;2022-07-01T15:22:03;1.05;;;0.70;;
36669;SDS011;22662;47.412;9.742;2022-07-01T15:24:29;0.80;;;0.80;;